Time;durP1;ratioP1;P1;durP2;ratioP2;P2;SDS_P1;SDS_P2;PMS_P1;PMS_P2;Temp;Humidity;BMP_temperature;BMP_pressure;BME280_temperature;BME280_humidity;BME280_pressure;Samples;Min_cycle;Max_cycle;Signal;HPM_P1;HPM_P2
2022/01/09 00:01:23;;;;;;;11.43;10.20;;;4.10;99.90;;;;;;5033990;28;20392;-66
2022/01/09 00:03:49;;;;;;;11.65;10.13;;;4.10;99.90;;;;;;5053368;28;20044;-66
2022/01/09 00:06:15;;;;;;;10.75;9.70;;;4.10;99.90;;;;;;5034528;28;20061;-66
2022/01/09 00:08:40;;;;;;;12.38;10.38;;;4.00;99.90;;;;;;5034921;28;20053;-66
2022/01/09 00:11:06;;;;;;;11.77;10.57;;;4.10;99.90;;;;;;5034775;28;20057;-66
2022/01/09 00:13:32;;;;;;;11.00;9.90;;;4.10;99.90;;;;;;5035368;28;20049;-65
2022/01/09 00:15:57;;;;;;;11.05;9.95;;;4.00;99.90;;;;;;5032839;28;20052;-67
2022/01/09 00:18:23;;;;;;;11.68;10.48;;;4.10;99.90;;;;;;5035140;28;20103;-65
2022/01/09 00:20:49;;;;;;;11.80;10.45;;;4.10;99.90;;;;;;5034986;28;20489;-67
2022/01/09 00:23:15;;;;;;;10.98;9.88;;;4.10;99.90;;;;;;5018133;28;20478;-65
2022/01/09 00:25:40;;;;;;;12.95;10.52;;;4.10;99.90;;;;;;5034996;28;20060;-65
2022/01/09 00:28:06;;;;;;;12.50;11.20;;;4.10;99.90;;;;;;5034376;28;20061;-65
2022/01/09 00:30:32;;;;;;;12.57;11.25;;;4.10;99.90;;;;;;5022317;28;20073;-65
2022/01/09 00:32:57;;;;;;;12.10;10.90;;;4.10;99.90;;;;;;5015955;28;20124;-68
2022/01/09 00:35:23;;;;;;;12.68;11.32;;;4.10;99.90;;;;;;5035172;28;20056;-65
2022/01/09 00:37:49;;;;;;;12.70;11.38;;;4.10;99.90;;;;;;5034841;28;20056;-66
2022/01/09 00:40:15;;;;;;;13.18;11.68;;;4.10;99.90;;;;;;5034678;28;20073;-66
2022/01/09 00:42:41;;;;;;;12.35;11.05;;;4.10;99.90;;;;;;5034633;28;20060;-66
2022/01/09 00:45:08;;;;;;;12.95;11.38;;;4.10;99.90;;;;;;5034609;28;20053;-66
2022/01/09 00:47:34;;;;;;;12.23;11.07;;;4.10;99.90;;;;;;5033080;28;20050;-66
2022/01/09 00:50:00;;;;;;;13.07;11.68;;;4.10;99.90;;;;;;5015920;28;20359;-66
2022/01/09 00:52:25;;;;;;;13.73;12.32;;;4.10;99.90;;;;;;5014915;28;20053;-66
2022/01/09 00:54:51;;;;;;;12.68;11.38;;;4.10;99.90;;;;;;5032961;28;20493;-66
2022/01/09 00:57:16;;;;;;;13.02;11.73;;;4.10;99.90;;;;;;5022235;28;20064;-65
2022/01/09 00:59:42;;;;;;;12.68;11.38;;;4.20;99.90;;;;;;5034148;28;20049;-66
2022/01/09 01:02:08;;;;;;;13.70;12.32;;;4.10;99.90;;;;;;5029865;28;20076;-65
2022/01/09 01:04:34;;;;;;;13.40;11.75;;;4.10;99.90;;;;;;4998058;28;20060;-66
2022/01/09 01:06:59;;;;;;;12.43;11.13;;;4.20;99.90;;;;;;5016468;28;20045;-66
2022/01/09 01:09:29;;;;;;;14.25;12.75;;;4.20;99.90;;;;;;5033868;28;20469;-67
2022/01/09 01:11:55;;;;;;;12.63;11.30;;;4.20;99.90;;;;;;5052458;28;20063;-67
2022/01/09 01:14:22;;;;;;;13.80;12.40;;;4.20;99.90;;;;;;5034269;28;20132;-65
2022/01/09 01:16:49;;;;;;;14.82;12.70;;;4.10;99.90;;;;;;5027792;28;20049;-66
2022/01/09 01:19:15;;;;;;;14.40;12.40;;;4.10;99.90;;;;;;5032176;28;20493;-67
2022/01/09 01:21:40;;;;;;;14.90;13.30;;;4.20;99.90;;;;;;5026926;28;20091;-66
2022/01/09 01:24:06;;;;;;;14.27;12.77;;;4.10;99.90;;;;;;5034780;28;20069;-66
2022/01/09 01:26:32;;;;;;;17.92;13.20;;;4.20;99.90;;;;;;5035690;28;20060;-66
2022/01/09 01:28:57;;;;;;;14.60;13.10;;;4.20;99.90;;;;;;5038382;28;20060;-66
2022/01/09 01:31:23;;;;;;;14.88;13.30;;;4.20;99.90;;;;;;5036902;28;20048;-66
2022/01/09 01:33:48;;;;;;;14.85;13.25;;;4.20;99.90;;;;;;5037642;28;20049;-67
2022/01/09 01:36:14;;;;;;;13.95;12.43;;;4.20;99.90;;;;;;5037262;28;20084;-66
2022/01/09 01:38:39;;;;;;;15.15;12.88;;;4.20;99.90;;;;;;5055962;28;20132;-66
2022/01/09 01:41:05;;;;;;;15.50;12.70;;;4.20;99.90;;;;;;5037663;28;20045;-67
2022/01/09 01:43:31;;;;;;;16.52;13.45;;;4.80;99.90;;;;;;5055689;28;20092;-66
2022/01/09 01:46:01;;;;;;;15.05;13.45;;;4.20;99.90;;;;;;5036524;28;20860;-68
2022/01/09 01:48:26;;;;;;;17.10;13.52;;;4.20;99.90;;;;;;5037839;28;20056;-65
2022/01/09 01:50:52;;;;;;;19.85;15.38;;;4.20;99.90;;;;;;5037198;28;20179;-66
2022/01/09 01:53:20;;;;;;;20.35;15.25;;;4.20;99.90;;;;;;5037681;28;20081;-66
2022/01/09 01:55:51;;;;;;;14.95;13.35;;;4.30;99.90;;;;;;5036917;28;20044;-65
2022/01/09 01:58:17;;;;;;;14.77;12.52;;;4.20;99.90;;;;;;5037811;28;20114;-66
2022/01/09 02:00:43;;;;;;;29.83;20.33;;;4.20;99.90;;;;;;5036609;28;20052;-65
2022/01/09 02:03:09;;;;;;;17.05;14.25;;;4.20;99.90;;;;;;5036893;28;20088;-65
2022/01/09 02:05:35;;;;;;;38.75;23.92;;;4.20;99.90;;;;;;5055562;28;20092;-66
2022/01/09 02:08:02;;;;;;;26.80;17.83;;;4.30;99.90;;;;;;5036793;28;20068;-65
2022/01/09 02:10:28;;;;;;;18.77;13.52;;;4.30;99.90;;;;;;5036774;28;20105;-66
2022/01/09 02:12:56;;;;;;;13.20;11.15;;;4.30;99.90;;;;;;5036459;28;20414;-67
2022/01/09 02:15:43;;;;;;;16.60;12.45;;;4.30;99.90;;;;;;5036905;28;20053;-65
2022/01/09 02:18:28;;;;;;;15.15;11.77;;;4.30;99.90;;;;;;5054414;28;20057;-66
2022/01/09 02:20:54;;;;;;;16.35;13.15;;;4.30;99.90;;;;;;5039376;28;20092;-65
2022/01/09 02:23:19;;;;;;;11.30;9.85;;;4.30;99.90;;;;;;5016878;28;20092;-66
2022/01/09 02:25:47;;;;;;;12.07;10.45;;;4.30;99.90;;;;;;5034732;28;20060;-66
2022/01/09 02:28:14;;;;;;;11.45;9.75;;;4.30;99.90;;;;;;5034643;28;20489;-66
2022/01/09 02:30:40;;;;;;;12.32;9.70;;;4.50;99.90;;;;;;5031961;28;20499;-65
2022/01/09 02:33:08;;;;;;;12.32;9.95;;;4.00;99.90;;;;;;5020319;28;20052;-65
2022/01/09 02:35:34;;;;;;;14.63;9.82;;;4.50;99.90;;;;;;5054691;28;20113;-67
2022/01/09 02:38:02;;;;;;;12.68;9.48;;;4.50;99.90;;;;;;5035883;28;20060;-66
2022/01/09 02:40:28;;;;;;;13.93;9.90;;;4.60;99.90;;;;;;5036275;28;20061;-67
2022/01/09 02:42:54;;;;;;;12.73;9.75;;;4.50;99.90;;;;;;5036164;28;20060;-67
2022/01/09 02:45:22;;;;;;;14.75;8.98;;;4.50;99.90;;;;;;5054303;28;20107;-67
2022/01/09 02:47:53;;;;;;;11.52;9.38;;;4.50;99.90;;;;;;5035315;28;20041;-65
2022/01/09 02:52:59;;;;;;;11.70;7.75;;;4.60;99.90;;;;;;5035568;28;20053;-66
2022/01/09 02:55:26;;;;;;;12.13;7.90;;;4.60;99.90;;;;;;5036478;28;20465;-67
2022/01/09 02:57:55;;;;;;;13.55;8.13;;;4.60;99.90;;;;;;5035244;28;20049;-67
2022/01/09 03:00:30;;;;;;;12.88;8.25;;;4.70;99.90;;;;;;5054295;28;20081;-65
2022/01/09 03:02:57;;;;;;;11.77;7.55;;;4.70;99.90;;;;;;5035194;28;20393;-66
2022/01/09 03:05:23;;;;;;;12.88;7.75;;;4.80;99.90;;;;;;5036318;28;20129;-67
2022/01/09 03:07:49;;;;;;;12.38;7.47;;;4.80;99.90;;;;;;5035572;28;20064;-67
2022/01/09 03:10:17;;;;;;;15.25;7.38;;;4.80;99.90;;;;;;5035908;28;20093;-66
2022/01/09 03:12:44;;;;;;;10.90;6.28;;;4.90;99.90;;;;;;5053669;28;20056;-66
2022/01/09 03:15:10;;;;;;;12.85;6.03;;;4.90;99.90;;;;;;5053155;28;20084;-65
2022/01/09 03:17:36;;;;;;;16.42;5.75;;;5.00;99.90;;;;;;5034755;28;20052;-65
2022/01/09 03:20:04;;;;;;;18.48;4.82;;;5.10;99.90;;;;;;5036263;28;20060;-67
2022/01/09 03:22:30;;;;;;;13.50;3.60;;;5.10;99.90;;;;;;5019063;28;20049;-66
2022/01/09 03:24:56;;;;;;;18.33;4.55;;;5.20;99.90;;;;;;5045205;28;20413;-68
2022/01/09 03:27:21;;;;;;;15.85;4.50;;;5.30;99.90;;;;;;5016123;28;20132;-65
2022/01/09 03:29:47;;;;;;;14.30;3.65;;;5.40;99.90;;;;;;5016569;28;20394;-67
2022/01/09 03:32:13;;;;;;;16.58;4.20;;;5.40;99.90;;;;;;5026535;28;20048;-66
2022/01/09 03:34:38;;;;;;;25.38;4.38;;;5.50;99.90;;;;;;5053400;28;20055;-66
2022/01/09 03:37:04;;;;;;;21.23;5.07;;;5.50;99.90;;;;;;5034662;28;20057;-65
2022/01/09 03:39:30;;;;;;;25.23;4.28;;;5.50;99.90;;;;;;5053230;28;20049;-65
2022/01/09 03:41:58;;;;;;;27.67;5.50;;;5.60;99.90;;;;;;5019449;28;20504;-67
2022/01/09 03:44:24;;;;;;;25.20;3.70;;;5.70;99.90;;;;;;5036016;28;20053;-67
2022/01/09 03:46:50;;;;;;;28.30;4.85;;;5.70;99.90;;;;;;5035090;28;20485;-66
2022/01/09 03:49:15;;;;;;;30.02;4.85;;;5.80;99.90;;;;;;5035002;28;20053;-66
2022/01/09 03:51:44;;;;;;;27.13;4.25;;;5.80;99.90;;;;;;5022846;28;20137;-67
2022/01/09 03:54:09;;;;;;;31.40;5.47;;;5.80;99.90;;;;;;5015588;28;20053;-65
2022/01/09 03:56:35;;;;;;;27.13;4.38;;;5.80;99.90;;;;;;5018761;28;20102;-67
2022/01/09 03:59:00;;;;;;;27.95;5.20;;;5.80;99.90;;;;;;5027717;28;20049;-67
2022/01/09 04:01:27;;;;;;;29.65;4.95;;;6.00;99.90;;;;;;5033017;28;20056;-64
2022/01/09 04:03:52;;;;;;;24.23;4.68;;;6.00;99.90;;;;;;5015444;28;20045;-65
2022/01/09 04:06:18;;;;;;;34.17;4.78;;;6.00;99.90;;;;;;5026970;28;20064;-66
2022/01/09 04:08:44;;;;;;;34.83;5.25;;;5.90;99.90;;;;;;5052630;28;20060;-67
2022/01/09 04:11:12;;;;;;;22.95;5.03;;;6.10;99.90;;;;;;5018358;28;20478;-68
2022/01/09 04:13:38;;;;;;;22.65;4.90;;;6.00;99.90;;;;;;5015634;28;20066;-66
2022/01/09 04:16:04;;;;;;;30.05;6.95;;;6.00;99.90;;;;;;5032554;28;20049;-64
2022/01/09 04:18:31;;;;;;;32.67;5.50;;;6.00;99.90;;;;;;5015725;28;20118;-66
2022/01/09 04:20:57;;;;;;;23.17;5.22;;;6.00;99.90;;;;;;5033195;28;20091;-65
2022/01/09 04:23:23;;;;;;;25.42;5.40;;;6.00;99.90;;;;;;5015110;28;20482;-66
2022/01/09 04:25:49;;;;;;;24.50;5.15;;;6.00;99.90;;;;;;5016268;28;20061;-66
2022/01/09 04:28:15;;;;;;;39.47;5.78;;;6.00;99.90;;;;;;5015390;28;20125;-67
2022/01/09 04:30:41;;;;;;;36.53;5.15;;;6.10;99.90;;;;;;5014455;28;20063;-66
2022/01/09 04:33:09;;;;;;;33.53;5.13;;;6.00;99.90;;;;;;5014836;28;20132;-66
2022/01/09 04:35:34;;;;;;;26.60;4.10;;;6.00;99.90;;;;;;5032274;28;20053;-67
2022/01/09 04:38:00;;;;;;;24.45;4.65;;;5.90;99.90;;;;;;5014594;28;20504;-67
2022/01/09 04:40:26;;;;;;;27.50;4.10;;;6.00;99.90;;;;;;5040984;28;20064;-65
2022/01/09 04:42:55;;;;;;;24.02;4.65;;;5.90;99.90;;;;;;5034620;28;20107;-66
2022/01/09 04:45:22;;;;;;;19.10;3.55;;;5.90;99.90;;;;;;5052855;28;20064;-66
2022/01/09 04:47:50;;;;;;;32.67;4.55;;;6.00;99.90;;;;;;5033903;28;20041;-66
2022/01/09 04:50:22;;;;;;;26.52;3.95;;;6.00;99.90;;;;;;5033155;28;20132;-66
2022/01/09 04:52:51;;;;;;;18.27;3.70;;;6.00;99.90;;;;;;5034436;28;20060;-65
2022/01/09 04:55:17;;;;;;;22.17;3.38;;;6.00;99.90;;;;;;5016535;28;20049;-66
2022/01/09 04:57:42;;;;;;;20.38;2.83;;;5.90;99.90;;;;;;5015187;28;20042;-65
2022/01/09 05:00:09;;;;;;;24.50;3.72;;;6.00;99.90;;;;;;5015304;28;20470;-65
2022/01/09 05:02:35;;;;;;;26.05;4.13;;;5.90;99.90;;;;;;5000696;28;20096;-65
2022/01/09 05:05:01;;;;;;;24.42;4.68;;;5.90;99.90;;;;;;5039521;28;20064;-66
2022/01/09 05:07:26;;;;;;;23.40;3.45;;;6.00;99.90;;;;;;5038686;28;20057;-65
2022/01/09 05:09:52;;;;;;;21.88;4.10;;;5.90;99.90;;;;;;5038507;28;20516;-66
2022/01/09 05:12:17;;;;;;;31.42;4.07;;;5.90;99.90;;;;;;5036527;28;20397;-66
2022/01/09 05:14:43;;;;;;;20.80;4.68;;;5.90;99.90;;;;;;5038009;28;20045;-64
2022/01/09 05:17:09;;;;;;;17.88;3.83;;;5.90;99.90;;;;;;5037201;28;20037;-66
2022/01/09 05:19:36;;;;;;;21.10;3.47;;;5.90;99.90;;;;;;5038503;28;20146;-66
2022/01/09 05:22:02;;;;;;;20.15;3.58;;;5.80;99.90;;;;;;5037860;28;20497;-66
2022/01/09 05:24:28;;;;;;;22.65;3.83;;;5.90;99.90;;;;;;5037372;28;20128;-66
2022/01/09 05:26:54;;;;;;;19.55;3.55;;;5.80;99.90;;;;;;5037899;28;20132;-65
2022/01/09 05:29:21;;;;;;;19.52;3.95;;;5.90;99.90;;;;;;5038115;28;20081;-65
2022/01/09 05:31:48;;;;;;;27.27;4.03;;;5.90;99.90;;;;;;5029029;28;20053;-65
2022/01/09 05:34:14;;;;;;;15.02;2.97;;;5.90;99.90;;;;;;5001746;28;20088;-67
2022/01/09 05:36:40;;;;;;;18.38;3.70;;;5.90;99.90;;;;;;5037068;28;20087;-65
2022/01/09 05:39:06;;;;;;;23.40;3.30;;;5.80;99.90;;;;;;5036686;28;20076;-68
2022/01/09 05:41:32;;;;;;;16.17;3.70;;;5.80;99.90;;;;;;5055874;28;20397;-67
2022/01/09 05:43:57;;;;;;;21.52;3.25;;;5.80;99.90;;;;;;5055565;28;20110;-67
2022/01/09 05:46:23;;;;;;;17.98;3.65;;;5.80;99.90;;;;;;5037699;28;20049;-66
2022/01/09 05:48:48;;;;;;;23.10;3.72;;;5.80;99.90;;;;;;5037858;28;20060;-65
2022/01/09 05:51:14;;;;;;;21.30;4.05;;;5.70;99.90;;;;;;5037869;28;20053;-65
2022/01/09 05:53:39;;;;;;;20.95;3.22;;;5.70;99.90;;;;;;5037202;28;20396;-66
2022/01/09 05:56:05;;;;;;;16.08;3.28;;;5.70;99.90;;;;;;5055353;28;20053;-66
2022/01/09 05:58:33;;;;;;;13.90;2.60;;;5.70;99.90;;;;;;5037292;28;20088;-67
2022/01/09 06:00:59;;;;;;;14.98;3.30;;;5.70;99.90;;;;;;5036489;28;20118;-68
2022/01/09 06:03:24;;;;;;;14.35;2.75;;;5.60;99.90;;;;;;5055199;28;20401;-68
2022/01/09 06:05:51;;;;;;;16.15;3.15;;;5.60;99.90;;;;;;5020581;28;20095;-66
2022/01/09 06:08:16;;;;;;;16.50;3.28;;;5.60;99.90;;;;;;5037392;28;20441;-67
2022/01/09 06:10:42;;;;;;;18.08;2.85;;;5.60;99.90;;;;;;5017786;28;20061;-66
2022/01/09 06:13:08;;;;;;;19.80;3.10;;;5.50;99.90;;;;;;5017391;28;20474;-67
2022/01/09 06:15:33;;;;;;;16.67;2.78;;;5.50;99.90;;;;;;5034971;28;20414;-65
2022/01/09 06:17:59;;;;;;;19.88;3.50;;;5.50;99.90;;;;;;5016751;28;20045;-67
2022/01/09 06:20:24;;;;;;;19.13;2.60;;;5.50;99.90;;;;;;5017099;28;20054;-66
2022/01/09 06:22:50;;;;;;;16.38;2.92;;;5.50;99.90;;;;;;5016862;28;20058;-65
2022/01/09 06:25:16;;;;;;;18.10;3.15;;;5.50;99.90;;;;;;5017150;28;20045;-66
2022/01/09 06:27:42;;;;;;;11.05;2.78;;;5.50;99.90;;;;;;5018056;28;20041;-68
2022/01/09 06:30:08;;;;;;;16.67;2.97;;;5.50;99.90;;;;;;5034505;28;20537;-66
2022/01/09 06:32:34;;;;;;;18.13;3.15;;;5.50;99.90;;;;;;5016471;28;20054;-66
2022/01/09 06:35:00;;;;;;;17.52;3.42;;;5.50;99.90;;;;;;5017090;28;20053;-66
2022/01/09 06:37:25;;;;;;;19.58;3.20;;;5.50;99.90;;;;;;5040627;28;20053;-64
2022/01/09 06:39:51;;;;;;;21.70;4.07;;;5.50;99.90;;;;;;5025553;28;20061;-67
2022/01/09 06:42:16;;;;;;;18.58;3.35;;;5.40;99.90;;;;;;5027351;28;20488;-67
2022/01/09 06:44:42;;;;;;;16.83;3.33;;;5.50;99.90;;;;;;5028750;28;20414;-67
2022/01/09 06:47:08;;;;;;;18.52;4.22;;;5.40;99.90;;;;;;5034086;28;20060;-68
2022/01/09 06:49:34;;;;;;;22.67;3.75;;;5.40;99.90;;;;;;5031323;28;20116;-68
2022/01/09 06:52:01;;;;;;;15.25;2.97;;;5.40;99.90;;;;;;5043464;28;20053;-68
2022/01/09 06:54:27;;;;;;;16.30;3.22;;;5.40;99.90;;;;;;5023427;28;20123;-67
2022/01/09 06:56:52;;;;;;;14.48;3.33;;;5.30;99.90;;;;;;5053927;28;20065;-69
2022/01/09 06:59:18;;;;;;;19.52;3.35;;;5.30;99.90;;;;;;5036098;28;20124;-66
2022/01/09 07:01:43;;;;;;;14.32;2.70;;;5.30;99.90;;;;;;5033058;28;20072;-67
2022/01/09 07:04:09;;;;;;;14.25;2.85;;;5.30;99.90;;;;;;5036424;28;20592;-68
2022/01/09 07:06:35;;;;;;;10.77;2.33;;;5.30;99.90;;;;;;5036250;28;20434;-66
2022/01/09 07:09:01;;;;;;;11.63;2.35;;;5.20;99.90;;;;;;5018844;28;20049;-67
2022/01/09 07:11:27;;;;;;;11.30;2.42;;;5.20;99.90;;;;;;5046078;28;20053;-66
2022/01/09 07:13:52;;;;;;;13.73;2.38;;;5.20;99.90;;;;;;5055974;28;20047;-68
2022/01/09 07:16:18;;;;;;;10.82;2.50;;;5.20;99.90;;;;;;5055906;28;20113;-66
2022/01/09 07:18:43;;;;;;;11.02;3.08;;;5.10;99.90;;;;;;5056042;28;20404;-65
2022/01/09 07:21:09;;;;;;;13.52;2.55;;;5.10;99.90;;;;;;5071188;28;20052;-66
2022/01/09 07:23:37;;;;;;;12.60;2.05;;;5.10;99.90;;;;;;5016057;28;20045;-66
2022/01/09 07:26:03;;;;;;;14.93;2.67;;;5.00;99.90;;;;;;5028564;28;20041;-66
2022/01/09 07:28:28;;;;;;;14.43;2.67;;;5.00;99.90;;;;;;5012012;28;20485;-68
2022/01/09 07:30:54;;;;;;;7.80;1.85;;;5.00;99.90;;;;;;5030858;28;20111;-67
2022/01/09 07:33:20;;;;;;;9.23;1.83;;;5.00;99.90;;;;;;5034832;28;20051;-66
2022/01/09 07:35:45;;;;;;;15.73;2.28;;;5.00;99.90;;;;;;5042515;28;20061;-68
2022/01/09 07:38:11;;;;;;;11.18;2.47;;;5.00;99.90;;;;;;5026585;28;20045;-67
2022/01/09 07:40:37;;;;;;;13.13;2.35;;;5.00;99.90;;;;;;5047109;28;20115;-66
2022/01/09 07:43:02;;;;;;;9.05;2.42;;;5.00;99.90;;;;;;5046829;28;20124;-66
2022/01/09 07:45:29;;;;;;;10.57;2.92;;;5.00;99.90;;;;;;5015984;28;20049;-67
2022/01/09 07:47:57;;;;;;;11.85;2.15;;;5.50;99.90;;;;;;5042695;28;20076;-67
2022/01/09 07:50:23;;;;;;;8.50;2.28;;;4.90;99.90;;;;;;5026700;28;20094;-67
2022/01/09 07:52:50;;;;;;;9.98;1.83;;;5.00;99.90;;;;;;5027935;28;20422;-66
2022/01/09 07:55:18;;;;;;;10.73;2.58;;;5.00;99.90;;;;;;5015785;28;20503;-67
2022/01/09 07:57:45;;;;;;;6.18;1.73;;;4.90;99.90;;;;;;5023461;28;20049;-67
2022/01/09 08:00:11;;;;;;;7.65;2.10;;;4.90;99.90;;;;;;5050686;28;20064;-67
2022/01/09 08:02:37;;;;;;;11.23;2.30;;;4.90;99.90;;;;;;5021463;28;20065;-67
2022/01/09 08:05:04;;;;;;;11.70;1.65;;;4.90;99.90;;;;;;5050457;28;20144;-67
2022/01/09 08:07:29;;;;;;;8.23;2.05;;;4.80;99.90;;;;;;5033881;28;20076;-66
2022/01/09 08:09:55;;;;;;;9.80;2.42;;;4.80;99.90;;;;;;5023113;28;20195;-67
2022/01/09 08:12:20;;;;;;;9.90;1.80;;;4.80;99.90;;;;;;5032911;28;20045;-66
2022/01/09 08:14:46;;;;;;;10.95;2.35;;;4.80;99.90;;;;;;5015536;28;20480;-66
2022/01/09 08:17:13;;;;;;;10.65;2.55;;;4.80;99.90;;;;;;5014482;28;20053;-66
2022/01/09 08:19:38;;;;;;;9.27;2.28;;;4.80;99.90;;;;;;5015789;28;20129;-66
2022/01/09 08:22:06;;;;;;;9.40;1.88;;;4.80;99.90;;;;;;5015115;28;20497;-68
2022/01/09 08:24:33;;;;;;;9.93;1.90;;;4.80;99.90;;;;;;5015356;28;20054;-66
2022/01/09 08:26:58;;;;;;;9.63;1.77;;;4.80;99.90;;;;;;5033154;28;20121;-66
2022/01/09 08:29:24;;;;;;;10.73;2.60;;;4.80;99.90;;;;;;5030114;28;20037;-66
2022/01/09 08:31:50;;;;;;;9.00;2.15;;;4.80;99.90;;;;;;4998697;28;20077;-68
2022/01/09 08:34:15;;;;;;;8.80;2.72;;;4.80;99.90;;;;;;5004895;28;20064;-66
2022/01/09 08:36:41;;;;;;;8.18;2.35;;;4.90;99.90;;;;;;5036308;28;20053;-67
2022/01/09 08:39:07;;;;;;;7.53;2.05;;;4.90;99.90;;;;;;5038711;28;20102;-66
2022/01/09 08:41:33;;;;;;;8.30;2.03;;;4.90;99.90;;;;;;5038602;28;20060;-65
2022/01/09 08:44:02;;;;;;;5.18;2.05;;;5.00;99.90;;;;;;5056040;28;20063;-66
2022/01/09 08:46:28;;;;;;;8.10;2.00;;;5.00;99.90;;;;;;5049290;28;20072;-65
2022/01/09 08:48:54;;;;;;;7.53;1.85;;;5.00;99.90;;;;;;5037138;28;20057;-67
2022/01/09 08:51:21;;;;;;;9.82;2.15;;;5.10;99.90;;;;;;5002053;28;20054;-66
2022/01/09 08:53:50;;;;;;;7.72;2.25;;;5.10;99.90;;;;;;5019749;28;20156;-66
2022/01/09 08:56:21;;;;;;;9.70;2.33;;;5.10;99.90;;;;;;5018629;28;20054;-66
2022/01/09 08:58:47;;;;;;;8.60;2.15;;;5.10;99.90;;;;;;5019109;28;20076;-66
2022/01/09 09:01:13;;;;;;;7.05;2.20;;;5.10;99.90;;;;;;5002392;28;20057;-67
2022/01/09 09:03:41;;;;;;;11.20;2.42;;;5.10;99.90;;;;;;5018721;28;20046;-66
2022/01/09 09:06:12;;;;;;;11.05;2.30;;;5.10;99.90;;;;;;5018437;28;20095;-65
2022/01/09 09:08:39;;;;;;;6.30;1.67;;;5.10;99.90;;;;;;5007733;28;20065;-66
2022/01/09 09:11:06;;;;;;;7.82;1.80;;;5.10;99.90;;;;;;4998879;28;20049;-65
2022/01/09 09:13:32;;;;;;;10.48;1.90;;;5.10;99.90;;;;;;5016591;28;20046;-66
2022/01/09 09:15:58;;;;;;;9.65;2.13;;;5.10;99.90;;;;;;5015664;28;20188;-68
2022/01/09 09:18:24;;;;;;;8.48;1.92;;;5.10;99.90;;;;;;5012883;28;20140;-66
2022/01/09 09:20:49;;;;;;;11.73;2.22;;;5.20;99.90;;;;;;5017989;28;20045;-66
2022/01/09 09:23:15;;;;;;;8.82;2.05;;;5.20;99.90;;;;;;5009802;28;20056;-66
2022/01/09 09:25:41;;;;;;;9.02;2.00;;;5.20;99.90;;;;;;4982292;28;20069;-67
2022/01/09 09:28:06;;;;;;;10.90;2.42;;;5.20;99.90;;;;;;4982124;28;20521;-67
2022/01/09 09:30:32;;;;;;;11.45;2.28;;;5.20;99.90;;;;;;4997269;28;20050;-66
2022/01/09 09:32:57;;;;;;;13.63;2.30;;;5.20;99.90;;;;;;4997995;28;20061;-66
2022/01/09 09:35:23;;;;;;;9.23;2.13;;;5.20;99.90;;;;;;5012783;28;20457;-66
2022/01/09 09:37:49;;;;;;;7.93;2.28;;;5.20;99.90;;;;;;5018366;28;20045;-66
2022/01/09 09:40:15;;;;;;;11.45;3.03;;;5.20;99.90;;;;;;5018259;28;20513;-65
2022/01/09 09:42:40;;;;;;;11.07;2.40;;;5.30;99.90;;;;;;5017936;28;20485;-66
2022/01/09 09:45:08;;;;;;;15.57;3.33;;;5.30;99.90;;;;;;5017889;28;20053;-66
2022/01/09 09:47:36;;;;;;;9.73;2.28;;;5.30;99.90;;;;;;5034705;28;20129;-66
2022/01/09 09:50:05;;;;;;;10.50;2.55;;;5.20;99.90;;;;;;5018145;28;20406;-66
2022/01/09 09:52:30;;;;;;;10.15;2.35;;;5.30;99.90;;;;;;5000472;28;20100;-65
2022/01/09 09:54:57;;;;;;;9.30;2.33;;;5.30;99.90;;;;;;5017501;28;20452;-66
2022/01/09 09:57:23;;;;;;;7.85;2.17;;;5.40;99.90;;;;;;5001499;28;20045;-68
2022/01/09 09:59:49;;;;;;;7.82;2.20;;;5.50;99.90;;;;;;5017608;28;20057;-66
2022/01/09 10:02:17;;;;;;;10.88;2.38;;;5.40;99.90;;;;;;5017072;28;20053;-67
2022/01/09 10:04:58;;;;;;;8.77;1.95;;;5.40;99.90;;;;;;5018028;28;20107;-67
2022/01/09 10:07:24;;;;;;;8.95;1.92;;;5.40;99.90;;;;;;5017536;28;20065;-67
2022/01/09 10:09:58;;;;;;;9.68;2.40;;;5.40;99.90;;;;;;5019592;28;20056;-66
2022/01/09 10:12:30;;;;;;;10.27;1.63;;;5.40;99.90;;;;;;5036343;28;20475;-67
2022/01/09 10:15:02;;;;;;;6.85;1.55;;;5.50;99.90;;;;;;5036864;28;20041;-68
2022/01/09 10:17:30;;;;;;;6.65;1.88;;;5.50;99.90;;;;;;5037052;28;20052;-67
2022/01/09 10:20:03;;;;;;;6.93;2.00;;;5.50;99.90;;;;;;5020736;28;20072;-67
2022/01/09 10:22:46;;;;;;;6.60;1.95;;;5.50;99.90;;;;;;5017705;28;20116;-66
2022/01/09 10:25:37;;;;;;;6.07;1.48;;;5.50;99.90;;;;;;5018074;28;20049;-66
2022/01/09 10:28:14;;;;;;;6.40;1.45;;;5.60;99.90;;;;;;5017506;28;20422;-67
2022/01/09 10:30:42;;;;;;;5.25;1.55;;;5.60;99.90;;;;;;5016549;28;20041;-66
2022/01/09 10:33:11;;;;;;;5.47;1.67;;;5.60;99.90;;;;;;5018536;28;20042;-65
2022/01/09 10:35:38;;;;;;;8.15;1.55;;;5.60;99.90;;;;;;5016927;28;20053;-67
2022/01/09 10:38:11;;;;;;;6.85;1.40;;;5.60;99.90;;;;;;5034819;28;20041;-66
2022/01/09 10:40:38;;;;;;;3.53;1.25;;;5.60;99.90;;;;;;5013941;28;20199;-67
2022/01/09 10:43:21;;;;;;;10.40;1.85;;;5.60;99.90;;;;;;5039127;28;20485;-66
2022/01/09 10:45:59;;;;;;;6.85;1.15;;;5.60;99.90;;;;;;5031765;28;20128;-66
2022/01/09 10:48:33;;;;;;;3.90;1.40;;;5.60;99.90;;;;;;5039531;28;20124;-67
2022/01/09 10:50:59;;;;;;;4.47;1.35;;;5.60;99.90;;;;;;5035968;28;20055;-66
2022/01/09 10:53:30;;;;;;;5.50;1.42;;;5.60;99.90;;;;;;5036557;28;20052;-67
2022/01/09 10:56:18;;;;;;;7.18;1.42;;;5.60;99.90;;;;;;5036586;28;20558;-66
2022/01/09 10:58:46;;;;;;;4.18;1.20;;;5.60;99.90;;;;;;5033674;28;20049;-67
2022/01/09 11:01:21;;;;;;;6.40;1.30;;;5.70;99.90;;;;;;5033652;28;20053;-66
2022/01/09 11:03:56;;;;;;;5.75;1.60;;;5.80;99.90;;;;;;4999940;28;20469;-67
2022/01/09 11:06:23;;;;;;;6.80;1.20;;;5.80;99.90;;;;;;5039844;28;20051;-67
2022/01/09 11:08:50;;;;;;;2.97;1.20;;;5.80;99.90;;;;;;5053343;28;20396;-67
2022/01/09 11:13:47;;;;;;;5.97;1.25;;;5.90;99.90;;;;;;5042824;28;20052;-66
2022/01/09 11:19:14;;;;;;;5.72;1.63;;;6.00;99.90;;;;;;5032952;28;20033;-66
2022/01/09 11:21:55;;;;;;;7.45;1.90;;;6.10;99.90;;;;;;5052787;28;20061;-67
2022/01/09 11:24:49;;;;;;;6.07;1.65;;;6.10;99.90;;;;;;5035644;28;20045;-67
2022/01/09 11:27:24;;;;;;;8.15;1.80;;;6.20;99.90;;;;;;5034987;28;20053;-67
2022/01/09 11:30:05;;;;;;;9.13;2.00;;;6.30;99.90;;;;;;5035583;28;20045;-66
2022/01/09 11:33:01;;;;;;;9.98;1.98;;;6.30;99.90;;;;;;5034979;28;20060;-67
2022/01/09 11:35:55;;;;;;;10.77;1.98;;;6.40;99.90;;;;;;5030410;28;20061;-73
2022/01/09 11:38:45;;;;;;;8.85;2.22;;;6.50;99.90;;;;;;5052999;28;20136;-66
2022/01/09 11:41:26;;;;;;;7.35;1.70;;;6.50;99.90;;;;;;5055291;28;20366;-66
2022/01/09 11:44:00;;;;;;;11.57;2.10;;;6.50;99.90;;;;;;5038794;28;20051;-65
2022/01/09 11:46:28;;;;;;;8.35;1.63;;;6.50;99.90;;;;;;5033328;28;20045;-67
2022/01/09 11:48:57;;;;;;;6.50;1.92;;;6.50;99.90;;;;;;5031185;28;20061;-68
2022/01/09 11:51:25;;;;;;;10.02;2.25;;;6.60;99.90;;;;;;5035391;28;20052;-67
2022/01/09 11:54:10;;;;;;;8.40;1.70;;;6.50;99.90;;;;;;5031890;28;20053;-66
2022/01/09 11:56:44;;;;;;;7.05;1.98;;;6.50;99.90;;;;;;5034721;28;20049;-66
2022/01/09 11:59:47;;;;;;;15.57;1.83;;;6.50;99.90;;;;;;5032097;28;20060;-68
2022/01/09 12:02:12;;;;;;;11.13;1.95;;;6.50;99.90;;;;;;5019586;28;20511;-66
2022/01/09 12:04:41;;;;;;;11.75;1.92;;;6.40;99.90;;;;;;5036341;28;20053;-68
2022/01/09 12:07:18;;;;;;;7.85;2.05;;;6.40;99.90;;;;;;5051961;28;20550;-67
2022/01/09 12:09:50;;;;;;;12.00;2.13;;;6.50;99.90;;;;;;5072473;28;20500;-66
2022/01/09 12:12:22;;;;;;;12.55;2.20;;;6.50;99.90;;;;;;5037731;28;20132;-67
2022/01/09 12:15:03;;;;;;;12.80;2.80;;;6.60;99.90;;;;;;5034985;28;20422;-67
2022/01/09 12:17:41;;;;;;;11.23;2.00;;;6.60;99.90;;;;;;5034266;28;20045;-68
2022/01/09 12:20:22;;;;;;;10.95;2.30;;;6.60;99.90;;;;;;5018219;28;20586;-66
2022/01/09 12:22:49;;;;;;;9.18;1.80;;;6.60;99.90;;;;;;5034567;28;20497;-67
2022/01/09 12:25:28;;;;;;;12.60;2.38;;;6.70;99.90;;;;;;5018455;28;20196;-66
2022/01/09 12:27:56;;;;;;;12.95;2.45;;;6.70;99.90;;;;;;5033121;28;21696;-66
2022/01/09 12:30:48;;;;;;;10.20;2.15;;;6.80;99.90;;;;;;5035268;28;20053;-66
2022/01/09 12:33:18;;;;;;;16.20;2.67;;;6.90;99.90;;;;;;5031613;28;20135;-68
2022/01/09 12:36:08;;;;;;;9.73;2.55;;;6.90;99.90;;;;;;5029705;28;20185;-67
2022/01/09 12:38:57;;;;;;;18.88;3.30;;;7.00;99.90;;;;;;5032245;28;20049;-67
2022/01/09 12:41:28;;;;;;;15.00;2.90;;;7.20;99.90;;;;;;5033785;28;20190;-67
2022/01/09 12:44:05;;;;;;;12.70;2.10;;;7.20;99.90;;;;;;5052559;28;20120;-66
2022/01/09 12:46:33;;;;;;;13.02;2.60;;;7.20;99.90;;;;;;5034278;28;20496;-68
2022/01/09 12:49:12;;;;;;;11.82;2.30;;;7.20;99.90;;;;;;5033791;28;20049;-65
2022/01/09 12:51:46;;;;;;;10.73;2.42;;;7.30;99.90;;;;;;5034633;28;20063;-66
2022/01/09 12:54:12;;;;;;;9.07;2.15;;;7.40;99.90;;;;;;5034822;28;20401;-66
2022/01/09 12:56:39;;;;;;;11.77;2.45;;;7.30;99.90;;;;;;5034938;28;20135;-66
2022/01/09 12:59:07;;;;;;;7.45;1.83;;;7.30;99.90;;;;;;5033039;28;20068;-67
2022/01/09 13:01:45;;;;;;;12.52;2.00;;;7.20;99.90;;;;;;5034112;28;20056;-68